sensor_id;sensor_type;location;lat;lon;timestamp;pressure;altitude;pressure_sealevel;temperature;humidity
60355;BME280;46198;51.464;-0.066;2023-04-29T00:00:50;101711.69;;;10.07;100.00
60355;BME280;46198;51.464;-0.066;2023-04-29T00:03:19;101714.75;;;10.04;100.00
60355;BME280;46198;51.464;-0.066;2023-04-29T00:05:48;101714.97;;;10.03;100.00
60355;BME280;46198;51.464;-0.066;2023-04-29T00:08:16;101717.88;;;10.01;100.00
60355;BME280;46198;51.464;-0.066;2023-04-29T00:10:44;101718.25;;;9.98;100.00
60355;BME280;46198;51.464;-0.066;2023-04-29T00:13:12;101712.44;;;10.01;100.00
60355;BME280;46198;51.464;-0.066;2023-04-29T00:15:40;101716.59;;;9.97;100.00
60355;BME280;46198;51.464;-0.066;2023-04-29T00:18:09;101716.97;;;9.94;100.00
60355;BME280;46198;51.464;-0.066;2023-04-29T00:21:03;101718.22;;;9.91;100.00
60355;BME280;46198;51.464;-0.066;2023-04-29T00:23:32;101717.72;;;9.88;100.00
60355;BME280;46198;51.464;-0.066;2023-04-29T00:26:00;101716.47;;;9.84;100.00
60355;BME280;46198;51.464;-0.066;2023-04-29T00:28:29;101723.94;;;9.82;100.00
60355;BME280;46198;51.464;-0.066;2023-04-29T00:30:57;101720.56;;;9.80;100.00
60355;BME280;46198;51.464;-0.066;2023-04-29T00:33:25;101718.25;;;9.76;100.00
60355;BME280;46198;51.464;-0.066;2023-04-29T00:35:53;101718.84;;;9.72;100.00
60355;BME280;46198;51.464;-0.066;2023-04-29T00:38:23;101719.41;;;9.67;100.00
60355;BME280;46198;51.464;-0.066;2023-04-29T00:41:17;101727.28;;;9.62;100.00
60355;BME280;46198;51.464;-0.066;2023-04-29T00:43:45;101722.44;;;9.58;100.00
60355;BME280;46198;51.464;-0.066;2023-04-29T00:46:13;101723.66;;;9.55;100.00
60355;BME280;46198;51.464;-0.066;2023-04-29T00:48:41;101727.97;;;9.49;100.00
60355;BME280;46198;51.464;-0.066;2023-04-29T00:51:09;101733.97;;;9.45;100.00
60355;BME280;46198;51.464;-0.066;2023-04-29T00:53:39;101734.34;;;9.42;100.00
60355;BME280;46198;51.464;-0.066;2023-04-29T00:56:07;101735.75;;;9.38;100.00
60355;BME280;46198;51.464;-0.066;2023-04-29T00:58:36;101740.72;;;9.34;100.00
60355;BME280;46198;51.464;-0.066;2023-04-29T01:01:05;101742.97;;;9.30;100.00
60355;BME280;46198;51.464;-0.066;2023-04-29T01:03:33;101735.59;;;9.24;100.00
60355;BME280;46198;51.464;-0.066;2023-04-29T01:06:08;101737.84;;;9.21;100.00
60355;BME280;46198;51.464;-0.066;2023-04-29T01:08:48;101735.88;;;9.15;100.00
60355;BME280;46198;51.464;-0.066;2023-04-29T01:11:21;101734.75;;;9.09;100.00
60355;BME280;46198;51.464;-0.066;2023-04-29T01:13:57;101733.25;;;9.06;100.00
60355;BME280;46198;51.464;-0.066;2023-04-29T01:16:29;101740.75;;;9.04;100.00
60355;BME280;46198;51.464;-0.066;2023-04-29T01:19:15;101741.69;;;8.97;100.00
60355;BME280;46198;51.464;-0.066;2023-04-29T01:21:45;101739.16;;;8.95;100.00
60355;BME280;46198;51.464;-0.066;2023-04-29T01:24:16;101746.66;;;8.93;100.00
60355;BME280;46198;51.464;-0.066;2023-04-29T01:26:52;101742.16;;;8.85;100.00
60355;BME280;46198;51.464;-0.066;2023-04-29T01:29:44;101748.59;;;8.84;100.00
60355;BME280;46198;51.464;-0.066;2023-04-29T01:32:17;101756.91;;;8.83;100.00
60355;BME280;46198;51.464;-0.066;2023-04-29T01:34:59;101752.88;;;8.79;100.00
60355;BME280;46198;51.464;-0.066;2023-04-29T01:37:37;101748.03;;;8.74;100.00
60355;BME280;46198;51.464;-0.066;2023-04-29T01:40:14;101750.75;;;8.74;100.00
60355;BME280;46198;51.464;-0.066;2023-04-29T01:42:59;101758.38;;;8.71;100.00
60355;BME280;46198;51.464;-0.066;2023-04-29T01:45:32;101758.28;;;8.64;100.00
60355;BME280;46198;51.464;-0.066;2023-04-29T01:48:01;101757.16;;;8.58;100.00
60355;BME280;46198;51.464;-0.066;2023-04-29T01:50:30;101768.16;;;8.57;100.00
60355;BME280;46198;51.464;-0.066;2023-04-29T01:53:07;101765.16;;;8.52;100.00
60355;BME280;46198;51.464;-0.066;2023-04-29T01:55:36;101767.22;;;8.50;100.00
60355;BME280;46198;51.464;-0.066;2023-04-29T01:58:30;101767.56;;;8.47;100.00
60355;BME280;46198;51.464;-0.066;2023-04-29T02:01:27;101766.44;;;8.41;100.00
60355;BME280;46198;51.464;-0.066;2023-04-29T02:03:56;101760.69;;;8.36;100.00
60355;BME280;46198;51.464;-0.066;2023-04-29T02:06:25;101765.63;;;8.32;100.00
60355;BME280;46198;51.464;-0.066;2023-04-29T02:08:58;101761.81;;;8.27;100.00
60355;BME280;46198;51.464;-0.066;2023-04-29T02:11:27;101766.75;;;8.23;100.00
60355;BME280;46198;51.464;-0.066;2023-04-29T02:13:56;101765.25;;;8.20;100.00
60355;BME280;46198;51.464;-0.066;2023-04-29T02:16:24;101769.16;;;8.18;100.00
60355;BME280;46198;51.464;-0.066;2023-04-29T02:18:58;101764.09;;;8.15;100.00
60355;BME280;46198;51.464;-0.066;2023-04-29T02:21:26;101776.13;;;8.12;100.00
60355;BME280;46198;51.464;-0.066;2023-04-29T02:23:54;101766.88;;;8.07;100.00
60355;BME280;46198;51.464;-0.066;2023-04-29T02:26:23;101773.47;;;8.04;100.00
60355;BME280;46198;51.464;-0.066;2023-04-29T02:28:55;101771.31;;;7.99;100.00
60355;BME280;46198;51.464;-0.066;2023-04-29T02:31:23;101771.66;;;7.96;100.00
60355;BME280;46198;51.464;-0.066;2023-04-29T02:33:53;101774.38;;;7.96;100.00
60355;BME280;46198;51.464;-0.066;2023-04-29T02:36:21;101770.34;;;7.92;100.00
60355;BME280;46198;51.464;-0.066;2023-04-29T02:38:51;101773.41;;;7.89;100.00
60355;BME280;46198;51.464;-0.066;2023-04-29T02:41:21;101772.75;;;7.87;100.00
60355;BME280;46198;51.464;-0.066;2023-04-29T02:43:51;101770.22;;;7.86;100.00
60355;BME280;46198;51.464;-0.066;2023-04-29T02:46:20;101768.88;;;7.82;100.00
60355;BME280;46198;51.464;-0.066;2023-04-29T02:48:48;101779.53;;;7.83;100.00
60355;BME280;46198;51.464;-0.066;2023-04-29T02:51:17;101788.84;;;7.81;100.00
60355;BME280;46198;51.464;-0.066;2023-04-29T02:53:47;101785.28;;;7.80;100.00
60355;BME280;46198;51.464;-0.066;2023-04-29T02:56:15;101782.94;;;7.77;100.00
60355;BME280;46198;51.464;-0.066;2023-04-29T02:58:43;101787.69;;;7.75;100.00
60355;BME280;46198;51.464;-0.066;2023-04-29T03:01:11;101794.13;;;7.74;100.00
60355;BME280;46198;51.464;-0.066;2023-04-29T03:03:41;101798.88;;;7.72;100.00
60355;BME280;46198;51.464;-0.066;2023-04-29T03:06:09;101798.19;;;7.70;100.00
60355;BME280;46198;51.464;-0.066;2023-04-29T03:08:37;101795.69;;;7.68;100.00
60355;BME280;46198;51.464;-0.066;2023-04-29T03:11:05;101798.53;;;7.67;100.00
60355;BME280;46198;51.464;-0.066;2023-04-29T03:13:34;101796.88;;;7.66;100.00
60355;BME280;46198;51.464;-0.066;2023-04-29T03:16:02;101804.66;;;7.61;100.00
60355;BME280;46198;51.464;-0.066;2023-04-29T03:18:32;101801.28;;;7.59;100.00
60355;BME280;46198;51.464;-0.066;2023-04-29T03:21:01;101801.66;;;7.55;100.00
60355;BME280;46198;51.464;-0.066;2023-04-29T03:23:30;101805.38;;;7.54;100.00
60355;BME280;46198;51.464;-0.066;2023-04-29T03:26:00;101806.38;;;7.53;100.00
60355;BME280;46198;51.464;-0.066;2023-04-29T03:28:29;101804.03;;;7.50;100.00
60355;BME280;46198;51.464;-0.066;2023-04-29T03:30:57;101807.09;;;7.47;100.00
60355;BME280;46198;51.464;-0.066;2023-04-29T03:33:26;101811.81;;;7.45;100.00
60355;BME280;46198;51.464;-0.066;2023-04-29T03:35:54;101810.50;;;7.41;100.00
60355;BME280;46198;51.464;-0.066;2023-04-29T03:38:35;101799.84;;;7.40;100.00
60355;BME280;46198;51.464;-0.066;2023-04-29T03:41:04;101802.91;;;7.37;100.00
60355;BME280;46198;51.464;-0.066;2023-04-29T03:43:32;101805.13;;;7.33;100.00
60355;BME280;46198;51.464;-0.066;2023-04-29T03:46:00;101809.84;;;7.31;100.00
60355;BME280;46198;51.464;-0.066;2023-04-29T03:48:28;101804.47;;;7.31;100.00
60355;BME280;46198;51.464;-0.066;2023-04-29T03:50:56;101813.91;;;7.27;100.00
60355;BME280;46198;51.464;-0.066;2023-04-29T03:53:25;101814.25;;;7.24;100.00
60355;BME280;46198;51.464;-0.066;2023-04-29T03:56:20;101820.84;;;7.21;100.00
60355;BME280;46198;51.464;-0.066;2023-04-29T03:58:51;101818.34;;;7.20;100.00
60355;BME280;46198;51.464;-0.066;2023-04-29T04:01:21;101810.59;;;7.17;100.00
60355;BME280;46198;51.464;-0.066;2023-04-29T04:03:50;101821.69;;;7.22;100.00
60355;BME280;46198;51.464;-0.066;2023-04-29T04:06:18;101815.81;;;7.18;100.00
60355;BME280;46198;51.464;-0.066;2023-04-29T04:08:47;101815.31;;;7.15;100.00
60355;BME280;46198;51.464;-0.066;2023-04-29T04:11:21;101812.97;;;7.12;100.00
60355;BME280;46198;51.464;-0.066;2023-04-29T04:13:55;101813.97;;;7.10;100.00
60355;BME280;46198;51.464;-0.066;2023-04-29T04:16:23;101815.16;;;7.08;100.00
60355;BME280;46198;51.464;-0.066;2023-04-29T04:18:51;101822.75;;;7.04;100.00
60355;BME280;46198;51.464;-0.066;2023-04-29T04:21:19;101821.09;;;7.03;100.00
60355;BME280;46198;51.464;-0.066;2023-04-29T04:23:57;101819.38;;;7.02;100.00
60355;BME280;46198;51.464;-0.066;2023-04-29T04:26:28;101830.72;;;6.98;100.00
60355;BME280;46198;51.464;-0.066;2023-04-29T04:29:11;101833.72;;;6.95;100.00
60355;BME280;46198;51.464;-0.066;2023-04-29T04:31:55;101841.00;;;6.94;100.00
60355;BME280;46198;51.464;-0.066;2023-04-29T04:34:24;101843.06;;;6.92;100.00
60355;BME280;46198;51.464;-0.066;2023-04-29T04:36:55;101855.88;;;6.90;100.00
60355;BME280;46198;51.464;-0.066;2023-04-29T04:39:23;101850.81;;;6.87;100.00
60355;BME280;46198;51.464;-0.066;2023-04-29T04:42:20;101858.91;;;6.87;100.00
60355;BME280;46198;51.464;-0.066;2023-04-29T04:44:52;101860.59;;;6.88;100.00
60355;BME280;46198;51.464;-0.066;2023-04-29T04:47:52;101868.34;;;6.91;100.00
60355;BME280;46198;51.464;-0.066;2023-04-29T04:50:26;101870.88;;;6.93;100.00
60355;BME280;46198;51.464;-0.066;2023-04-29T04:52:54;101869.38;;;6.90;100.00
60355;BME280;46198;51.464;-0.066;2023-04-29T04:55:43;101876.63;;;6.90;100.00
60355;BME280;46198;51.464;-0.066;2023-04-29T04:58:12;101881.50;;;6.86;100.00
60355;BME280;46198;51.464;-0.066;2023-04-29T05:00:43;101894.00;;;6.87;100.00
60355;BME280;46198;51.464;-0.066;2023-04-29T05:03:12;101894.16;;;6.85;100.00
60355;BME280;46198;51.464;-0.066;2023-04-29T05:05:40;101891.47;;;6.85;100.00
60355;BME280;46198;51.464;-0.066;2023-04-29T05:08:34;101895.69;;;6.88;100.00
60355;BME280;46198;51.464;-0.066;2023-04-29T05:11:04;101900.75;;;6.91;100.00
60355;BME280;46198;51.464;-0.066;2023-04-29T05:13:33;101898.03;;;6.91;100.00
60355;BME280;46198;51.464;-0.066;2023-04-29T05:16:01;101910.84;;;6.97;100.00
60355;BME280;46198;51.464;-0.066;2023-04-29T05:18:37;101907.84;;;7.00;100.00
60355;BME280;46198;51.464;-0.066;2023-04-29T05:21:05;101915.06;;;7.08;100.00
60355;BME280;46198;51.464;-0.066;2023-04-29T05:23:35;101925.88;;;7.16;100.00
60355;BME280;46198;51.464;-0.066;2023-04-29T05:26:03;101916.91;;;7.24;100.00
60355;BME280;46198;51.464;-0.066;2023-04-29T05:28:32;101913.84;;;7.35;100.00
60355;BME280;46198;51.464;-0.066;2023-04-29T05:31:01;101924.00;;;7.41;100.00
60355;BME280;46198;51.464;-0.066;2023-04-29T05:33:29;101922.09;;;7.50;100.00
60355;BME280;46198;51.464;-0.066;2023-04-29T05:35:57;101915.16;;;7.55;100.00
60355;BME280;46198;51.464;-0.066;2023-04-29T05:38:25;101915.81;;;7.66;100.00
60355;BME280;46198;51.464;-0.066;2023-04-29T05:41:01;101921.84;;;7.76;100.00
60355;BME280;46198;51.464;-0.066;2023-04-29T05:43:50;101920.81;;;7.85;100.00
60355;BME280;46198;51.464;-0.066;2023-04-29T05:46:18;101918.06;;;7.93;100.00
60355;BME280;46198;51.464;-0.066;2023-04-29T05:48:49;101919.53;;;8.04;100.00
60355;BME280;46198;51.464;-0.066;2023-04-29T05:51:17;101912.22;;;8.13;100.00
60355;BME280;46198;51.464;-0.066;2023-04-29T05:53:45;101924.03;;;8.20;100.00
60355;BME280;46198;51.464;-0.066;2023-04-29T05:56:13;101925.34;;;8.24;100.00
60355;BME280;46198;51.464;-0.066;2023-04-29T05:58:42;101930.03;;;8.30;100.00
60355;BME280;46198;51.464;-0.066;2023-04-29T06:01:11;101923.06;;;8.36;100.00
60355;BME280;46198;51.464;-0.066;2023-04-29T06:03:40;101921.03;;;8.38;100.00
60355;BME280;46198;51.464;-0.066;2023-04-29T06:06:25;101918.31;;;8.46;100.00
60355;BME280;46198;51.464;-0.066;2023-04-29T06:09:07;101909.28;;;8.54;100.00
60355;BME280;46198;51.464;-0.066;2023-04-29T06:11:53;101916.88;;;8.58;100.00
60355;BME280;46198;51.464;-0.066;2023-04-29T06:14:20;101909.91;;;8.64;100.00
60355;BME280;46198;51.464;-0.066;2023-04-29T06:16:50;101919.63;;;8.73;100.00
60355;BME280;46198;51.464;-0.066;2023-04-29T06:19:19;101921.34;;;8.74;100.00
60355;BME280;46198;51.464;-0.066;2023-04-29T06:21:48;101921.59;;;8.79;100.00
60355;BME280;46198;51.464;-0.066;2023-04-29T06:24:16;101921.56;;;8.87;100.00
60355;BME280;46198;51.464;-0.066;2023-04-29T06:26:44;101928.28;;;8.92;100.00
60355;BME280;46198;51.464;-0.066;2023-04-29T06:29:12;101925.69;;;8.98;100.00
60355;BME280;46198;51.464;-0.066;2023-04-29T06:31:41;101936.94;;;9.10;100.00
60355;BME280;46198;51.464;-0.066;2023-04-29T06:34:10;101921.06;;;9.07;100.00
60355;BME280;46198;51.464;-0.066;2023-04-29T06:36:54;101926.03;;;9.18;100.00
60355;BME280;46198;51.464;-0.066;2023-04-29T06:39:45;101929.03;;;9.23;100.00
60355;BME280;46198;51.464;-0.066;2023-04-29T06:42:18;101934.56;;;9.30;100.00
60355;BME280;46198;51.464;-0.066;2023-04-29T06:45:12;101929.25;;;9.37;100.00
60355;BME280;46198;51.464;-0.066;2023-04-29T06:47:55;101935.44;;;9.45;100.00
60355;BME280;46198;51.464;-0.066;2023-04-29T06:50:37;101944.84;;;9.49;100.00
60355;BME280;46198;51.464;-0.066;2023-04-29T06:53:06;101949.34;;;9.57;100.00
60355;BME280;46198;51.464;-0.066;2023-04-29T06:55:35;101954.22;;;9.62;100.00
60355;BME280;46198;51.464;-0.066;2023-04-29T06:58:03;101952.72;;;9.59;100.00
60355;BME280;46198;51.464;-0.066;2023-04-29T07:00:31;101967.03;;;9.68;100.00
60355;BME280;46198;51.464;-0.066;2023-04-29T07:02:59;101963.41;;;9.75;100.00
60355;BME280;46198;51.464;-0.066;2023-04-29T07:05:27;101964.34;;;9.83;100.00
60355;BME280;46198;51.464;-0.066;2023-04-29T07:07:57;101958.72;;;9.84;100.00
60355;BME280;46198;51.464;-0.066;2023-04-29T07:10:25;101952.63;;;9.97;100.00
60355;BME280;46198;51.464;-0.066;2023-04-29T07:12:53;101958.63;;;10.07;100.00
60355;BME280;46198;51.464;-0.066;2023-04-29T07:15:21;101949.78;;;10.20;100.00
60355;BME280;46198;51.464;-0.066;2023-04-29T07:17:50;101955.69;;;10.24;100.00
60355;BME280;46198;51.464;-0.066;2023-04-29T07:20:19;101961.84;;;10.17;100.00
60355;BME280;46198;51.464;-0.066;2023-04-29T07:22:48;101969.91;;;10.26;100.00
60355;BME280;46198;51.464;-0.066;2023-04-29T07:25:18;101980.22;;;10.15;100.00
60355;BME280;46198;51.464;-0.066;2023-04-29T07:27:46;101984.50;;;10.25;100.00
60355;BME280;46198;51.464;-0.066;2023-04-29T07:30:14;101976.56;;;10.38;100.00
60355;BME280;46198;51.464;-0.066;2023-04-29T07:32:42;101973.34;;;10.49;100.00
60355;BME280;46198;51.464;-0.066;2023-04-29T07:35:10;101976.41;;;10.61;100.00
60355;BME280;46198;51.464;-0.066;2023-04-29T07:37:39;101980.88;;;10.69;100.00
60355;BME280;46198;51.464;-0.066;2023-04-29T07:40:10;101987.63;;;10.94;100.00
60355;BME280;46198;51.464;-0.066;2023-04-29T07:42:40;101986.31;;;11.12;100.00
60355;BME280;46198;51.464;-0.066;2023-04-29T07:45:09;101989.81;;;11.27;100.00
60355;BME280;46198;51.464;-0.066;2023-04-29T07:47:37;101996.84;;;11.71;100.00
60355;BME280;46198;51.464;-0.066;2023-04-29T07:50:06;101988.22;;;11.95;100.00
60355;BME280;46198;51.464;-0.066;2023-04-29T07:52:34;101993.16;;;11.85;100.00
60355;BME280;46198;51.464;-0.066;2023-04-29T07:55:02;101996.94;;;11.84;100.00
60355;BME280;46198;51.464;-0.066;2023-04-29T07:57:31;101997.72;;;11.78;100.00
60355;BME280;46198;51.464;-0.066;2023-04-29T08:00:00;101989.72;;;12.05;100.00
60355;BME280;46198;51.464;-0.066;2023-04-29T08:02:29;101991.66;;;12.11;100.00
60355;BME280;46198;51.464;-0.066;2023-04-29T08:04:57;101995.91;;;12.20;100.00
60355;BME280;46198;51.464;-0.066;2023-04-29T08:07:27;101997.22;;;12.37;100.00
60355;BME280;46198;51.464;-0.066;2023-04-29T08:09:57;102004.59;;;12.50;100.00
60355;BME280;46198;51.464;-0.066;2023-04-29T08:12:25;102006.50;;;12.56;100.00
60355;BME280;46198;51.464;-0.066;2023-04-29T08:14:53;102002.56;;;12.72;100.00
60355;BME280;46198;51.464;-0.066;2023-04-29T08:17:22;102000.00;;;12.51;100.00
60355;BME280;46198;51.464;-0.066;2023-04-29T08:19:51;101996.97;;;12.94;100.00
60355;BME280;46198;51.464;-0.066;2023-04-29T08:22:19;101999.06;;;12.85;100.00
60355;BME280;46198;51.464;-0.066;2023-04-29T08:24:47;102002.47;;;13.20;100.00
60355;BME280;46198;51.464;-0.066;2023-04-29T08:27:15;101992.56;;;12.93;100.00
60355;BME280;46198;51.464;-0.066;2023-04-29T08:29:43;101995.31;;;13.06;100.00
60355;BME280;46198;51.464;-0.066;2023-04-29T08:32:11;101998.03;;;13.13;100.00
60355;BME280;46198;51.464;-0.066;2023-04-29T08:34:41;101996.19;;;13.26;100.00
60355;BME280;46198;51.464;-0.066;2023-04-29T08:37:10;101998.28;;;13.64;100.00
60355;BME280;46198;51.464;-0.066;2023-04-29T08:39:38;102001.81;;;13.98;100.00
60355;BME280;46198;51.464;-0.066;2023-04-29T08:42:09;102000.53;;;13.94;100.00
60355;BME280;46198;51.464;-0.066;2023-04-29T08:44:37;102001.38;;;14.01;100.00
60355;BME280;46198;51.464;-0.066;2023-04-29T08:47:07;102001.06;;;14.29;100.00
60355;BME280;46198;51.464;-0.066;2023-04-29T08:49:35;102007.31;;;14.43;100.00
60355;BME280;46198;51.464;-0.066;2023-04-29T08:52:06;102010.47;;;14.40;100.00
60355;BME280;46198;51.464;-0.066;2023-04-29T08:54:34;102002.88;;;14.55;100.00
60355;BME280;46198;51.464;-0.066;2023-04-29T08:57:03;102015.47;;;14.95;100.00
60355;BME280;46198;51.464;-0.066;2023-04-29T08:59:32;102005.56;;;14.62;100.00
60355;BME280;46198;51.464;-0.066;2023-04-29T09:02:00;102014.69;;;14.88;100.00
60355;BME280;46198;51.464;-0.066;2023-04-29T09:04:37;102021.25;;;15.12;100.00
60355;BME280;46198;51.464;-0.066;2023-04-29T09:07:09;102023.31;;;15.16;100.00
60355;BME280;46198;51.464;-0.066;2023-04-29T09:09:38;102018.00;;;15.53;100.00
60355;BME280;46198;51.464;-0.066;2023-04-29T09:12:07;102021.28;;;15.62;100.00
60355;BME280;46198;51.464;-0.066;2023-04-29T09:14:35;102020.44;;;15.61;100.00
60355;BME280;46198;51.464;-0.066;2023-04-29T09:17:03;102025.16;;;15.98;100.00
60355;BME280;46198;51.464;-0.066;2023-04-29T09:19:34;102016.88;;;15.86;100.00
60355;BME280;46198;51.464;-0.066;2023-04-29T09:22:03;102031.47;;;15.98;100.00
60355;BME280;46198;51.464;-0.066;2023-04-29T09:24:34;102045.28;;;16.10;100.00
60355;BME280;46198;51.464;-0.066;2023-04-29T09:27:04;102027.75;;;15.92;100.00
60355;BME280;46198;51.464;-0.066;2023-04-29T09:29:32;102028.25;;;16.26;100.00
60355;BME280;46198;51.464;-0.066;2023-04-29T09:32:17;102028.41;;;16.31;100.00
60355;BME280;46198;51.464;-0.066;2023-04-29T09:34:46;102031.56;;;16.47;100.00
60355;BME280;46198;51.464;-0.066;2023-04-29T09:37:23;102032.34;;;16.35;100.00
60355;BME280;46198;51.464;-0.066;2023-04-29T09:39:53;102036.91;;;16.42;100.00
60355;BME280;46198;51.464;-0.066;2023-04-29T09:42:21;102023.78;;;16.62;100.00
60355;BME280;46198;51.464;-0.066;2023-04-29T09:44:50;102034.28;;;16.65;100.00
60355;BME280;46198;51.464;-0.066;2023-04-29T09:47:28;102029.53;;;16.91;100.00
60355;BME280;46198;51.464;-0.066;2023-04-29T09:50:10;102019.66;;;17.01;100.00
60355;BME280;46198;51.464;-0.066;2023-04-29T09:52:39;102035.47;;;16.69;100.00
60355;BME280;46198;51.464;-0.066;2023-04-29T09:55:10;102040.59;;;17.14;100.00
60355;BME280;46198;51.464;-0.066;2023-04-29T09:57:41;102032.38;;;16.66;100.00
60355;BME280;46198;51.464;-0.066;2023-04-29T10:00:11;102036.03;;;17.08;100.00
60355;BME280;46198;51.464;-0.066;2023-04-29T10:02:41;102037.97;;;16.59;100.00
60355;BME280;46198;51.464;-0.066;2023-04-29T10:05:09;102026.34;;;16.94;100.00
60355;BME280;46198;51.464;-0.066;2023-04-29T10:07:38;102030.94;;;17.23;100.00
60355;BME280;46198;51.464;-0.066;2023-04-29T10:10:09;102029.63;;;17.14;100.00
60355;BME280;46198;51.464;-0.066;2023-04-29T10:12:43;102041.97;;;17.59;100.00
60355;BME280;46198;51.464;-0.066;2023-04-29T10:15:19;102033.50;;;17.60;100.00
60355;BME280;46198;51.464;-0.066;2023-04-29T10:17:54;102033.69;;;17.23;100.00
60355;BME280;46198;51.464;-0.066;2023-04-29T10:20:25;102036.97;;;17.56;100.00
60355;BME280;46198;51.464;-0.066;2023-04-29T10:22:54;102037.13;;;17.72;100.00
60355;BME280;46198;51.464;-0.066;2023-04-29T10:25:24;102039.34;;;17.52;100.00
60355;BME280;46198;51.464;-0.066;2023-04-29T10:27:54;102034.34;;;17.49;100.00
60355;BME280;46198;51.464;-0.066;2023-04-29T10:30:22;102040.56;;;17.56;100.00
60355;BME280;46198;51.464;-0.066;2023-04-29T10:32:51;102042.09;;;17.64;100.00
60355;BME280;46198;51.464;-0.066;2023-04-29T10:35:20;102033.88;;;17.52;100.00
60355;BME280;46198;51.464;-0.066;2023-04-29T10:37:52;102037.94;;;17.73;100.00
60355;BME280;46198;51.464;-0.066;2023-04-29T10:40:26;102041.94;;;17.89;100.00
60355;BME280;46198;51.464;-0.066;2023-04-29T10:42:57;102039.28;;;17.94;100.00
60355;BME280;46198;51.464;-0.066;2023-04-29T10:45:26;102033.66;;;18.24;100.00
60355;BME280;46198;51.464;-0.066;2023-04-29T10:48:14;102029.34;;;18.16;100.00
60355;BME280;46198;51.464;-0.066;2023-04-29T10:51:00;102027.72;;;18.44;100.00
60355;BME280;46198;51.464;-0.066;2023-04-29T10:53:29;102034.47;;;18.25;100.00
60355;BME280;46198;51.464;-0.066;2023-04-29T10:56:04;102038.25;;;18.47;100.00
60355;BME280;46198;51.464;-0.066;2023-04-29T10:58:37;102036.78;;;18.56;100.00
60355;BME280;46198;51.464;-0.066;2023-04-29T11:01:06;102029.53;;;18.38;100.00
60355;BME280;46198;51.464;-0.066;2023-04-29T11:03:53;102034.69;;;18.35;100.00
60355;BME280;46198;51.464;-0.066;2023-04-29T11:06:26;102041.75;;;18.31;100.00
60355;BME280;46198;51.464;-0.066;2023-04-29T11:09:08;102036.09;;;18.49;100.00
60355;BME280;46198;51.464;-0.066;2023-04-29T11:11:43;102026.06;;;18.43;100.00
60355;BME280;46198;51.464;-0.066;2023-04-29T11:14:12;102037.22;;;18.77;100.00
60355;BME280;46198;51.464;-0.066;2023-04-29T11:16:47;102032.97;;;18.86;100.00
60355;BME280;46198;51.464;-0.066;2023-04-29T11:19:17;102019.69;;;19.12;100.00
60355;BME280;46198;51.464;-0.066;2023-04-29T11:21:46;102009.78;;;19.27;100.00
60355;BME280;46198;51.464;-0.066;2023-04-29T11:24:14;102013.88;;;19.25;100.00
60355;BME280;46198;51.464;-0.066;2023-04-29T11:26:44;102015.94;;;19.35;100.00
60355;BME280;46198;51.464;-0.066;2023-04-29T11:29:13;102022.88;;;19.20;100.00
60355;BME280;46198;51.464;-0.066;2023-04-29T11:31:41;102017.47;;;19.42;100.00
60355;BME280;46198;51.464;-0.066;2023-04-29T11:34:09;102013.94;;;19.64;100.00
60355;BME280;46198;51.464;-0.066;2023-04-29T11:36:37;102023.66;;;19.66;100.00
60355;BME280;46198;51.464;-0.066;2023-04-29T11:39:06;102016.69;;;19.64;100.00
60355;BME280;46198;51.464;-0.066;2023-04-29T11:41:35;102007.44;;;19.70;96.17
60355;BME280;46198;51.464;-0.066;2023-04-29T11:44:06;102009.78;;;19.95;100.00
60355;BME280;46198;51.464;-0.066;2023-04-29T11:46:35;102012.22;;;20.35;100.00
60355;BME280;46198;51.464;-0.066;2023-04-29T11:49:03;102008.44;;;20.42;92.81
60355;BME280;46198;51.464;-0.066;2023-04-29T11:51:31;102012.78;;;20.37;89.14
60355;BME280;46198;51.464;-0.066;2023-04-29T11:53:59;102013.69;;;20.65;92.12
60355;BME280;46198;51.464;-0.066;2023-04-29T11:56:27;102009.44;;;20.35;93.74
60355;BME280;46198;51.464;-0.066;2023-04-29T11:58:56;102005.69;;;20.91;85.48
60355;BME280;46198;51.464;-0.066;2023-04-29T12:01:28;102001.31;;;20.46;75.89
60355;BME280;46198;51.464;-0.066;2023-04-29T12:03:57;102009.31;;;21.23;76.22
60355;BME280;46198;51.464;-0.066;2023-04-29T12:06:27;101998.19;;;21.13;68.91
60355;BME280;46198;51.464;-0.066;2023-04-29T12:08:57;102007.09;;;21.20;70.02
60355;BME280;46198;51.464;-0.066;2023-04-29T12:11:26;102014.94;;;21.71;75.21
60355;BME280;46198;51.464;-0.066;2023-04-29T12:13:55;102005.66;;;21.82;72.22
60355;BME280;46198;51.464;-0.066;2023-04-29T12:16:24;102011.16;;;22.30;74.14
60355;BME280;46198;51.464;-0.066;2023-04-29T12:18:56;102007.84;;;22.33;61.71
60355;BME280;46198;51.464;-0.066;2023-04-29T12:21:25;102008.22;;;22.57;69.34
60355;BME280;46198;51.464;-0.066;2023-04-29T12:23:57;102002.72;;;22.62;58.57
60355;BME280;46198;51.464;-0.066;2023-04-29T12:26:29;101996.91;;;22.69;58.25
60355;BME280;46198;51.464;-0.066;2023-04-29T12:28:58;101998.59;;;22.80;57.88
60355;BME280;46198;51.464;-0.066;2023-04-29T12:31:32;101996.47;;;23.08;55.09
60355;BME280;46198;51.464;-0.066;2023-04-29T12:34:03;102001.88;;;22.62;53.59
60355;BME280;46198;51.464;-0.066;2023-04-29T12:36:35;102001.44;;;23.00;54.66
60355;BME280;46198;51.464;-0.066;2023-04-29T12:39:05;101992.84;;;23.22;50.88
60355;BME280;46198;51.464;-0.066;2023-04-29T12:41:37;101998.31;;;22.82;47.14
60355;BME280;46198;51.464;-0.066;2023-04-29T12:44:05;101993.69;;;23.33;57.09
60355;BME280;46198;51.464;-0.066;2023-04-29T12:46:33;101986.75;;;23.41;54.93
60355;BME280;46198;51.464;-0.066;2023-04-29T12:49:04;101995.59;;;23.74;50.47
60355;BME280;46198;51.464;-0.066;2023-04-29T12:51:34;101994.75;;;23.53;51.59
60355;BME280;46198;51.464;-0.066;2023-04-29T12:54:03;101999.47;;;23.62;53.62
60355;BME280;46198;51.464;-0.066;2023-04-29T12:56:32;101994.25;;;23.45;47.97